createdAt,value
2023-02-11T00:00:10.824Z,1031.2
2023-02-11T00:01:10.821Z,1031.2
2023-02-11T00:02:10.948Z,1031.2
2023-02-11T00:03:10.876Z,1031.1
2023-02-11T00:05:10.822Z,1031.1
2023-02-11T00:06:10.812Z,1031.1
2023-02-11T00:07:10.811Z,1031.1
2023-02-11T00:08:10.815Z,1031.1
2023-02-11T00:09:10.817Z,1031.1
2023-02-11T00:10:10.818Z,1031
2023-02-11T00:11:10.833Z,1031.1
2023-02-11T00:12:10.837Z,1031
2023-02-11T00:13:10.819Z,1031
2023-02-11T00:14:10.850Z,1031
2023-02-11T00:15:10.824Z,1031
2023-02-11T00:16:10.849Z,1031
2023-02-11T00:17:10.843Z,1031
2023-02-11T00:18:10.827Z,1031.1
2023-02-11T00:19:10.822Z,1031
2023-02-11T00:20:10.822Z,1031
2023-02-11T00:21:10.828Z,1031
2023-02-11T00:22:10.853Z,1031.1
2023-02-11T00:23:10.839Z,1031
2023-02-11T00:24:10.823Z,1030.9
2023-02-11T00:25:10.817Z,1031
2023-02-11T00:26:10.818Z,1030.9
2023-02-11T00:27:10.820Z,1030.9
2023-02-11T00:28:10.849Z,1030.9
2023-02-11T00:29:10.840Z,1030.9
2023-02-11T00:30:10.828Z,1030.9
2023-02-11T00:31:10.955Z,1030.9
2023-02-11T00:32:10.819Z,1030.9
2023-02-11T00:33:10.812Z,1030.9
2023-02-11T00:34:10.829Z,1030.9
2023-02-11T00:35:10.811Z,1030.9
2023-02-11T00:36:10.832Z,1031
2023-02-11T00:37:10.834Z,1030.9
2023-02-11T00:38:10.825Z,1030.9
2023-02-11T00:39:10.859Z,1030.9
2023-02-11T00:40:10.817Z,1030.9
2023-02-11T00:41:10.818Z,1030.9
2023-02-11T00:42:10.828Z,1030.9
2023-02-11T00:43:10.833Z,1030.9
2023-02-11T00:44:10.872Z,1030.9
2023-02-11T00:45:10.834Z,1030.9
2023-02-11T00:46:10.870Z,1030.9
2023-02-11T00:47:10.826Z,1030.9
2023-02-11T00:48:10.826Z,1030.9
2023-02-11T00:49:10.837Z,1030.8
2023-02-11T00:51:10.838Z,1030.7
2023-02-11T00:52:10.826Z,1030.7
2023-02-11T00:53:10.845Z,1030.7
2023-02-11T00:54:10.833Z,1030.7
2023-02-11T00:55:10.814Z,1030.7
2023-02-11T00:56:10.832Z,1030.7
2023-02-11T00:57:10.840Z,1030.7
2023-02-11T00:58:10.836Z,1030.8
2023-02-11T00:59:10.817Z,1030.8
2023-02-11T01:00:10.829Z,1030.7
2023-02-11T01:01:10.976Z,1030.8
2023-02-11T01:02:10.830Z,1030.8
2023-02-11T01:03:10.838Z,1030.7
2023-02-11T01:04:10.839Z,1030.8
2023-02-11T01:05:10.884Z,1030.8
2023-02-11T01:06:10.851Z,1030.8
2023-02-11T01:07:10.867Z,1030.8
2023-02-11T01:08:10.833Z,1030.8
2023-02-11T01:09:10.843Z,1030.8
2023-02-11T01:10:10.841Z,1030.8
2023-02-11T01:11:10.845Z,1030.8
2023-02-11T01:12:10.825Z,1030.8
2023-02-11T01:13:10.841Z,1030.8
2023-02-11T01:14:10.832Z,1030.8
2023-02-11T01:15:10.828Z,1030.8
2023-02-11T01:16:10.956Z,1030.8
2023-02-11T01:17:10.857Z,1030.8
2023-02-11T01:18:10.853Z,1030.8
2023-02-11T01:19:10.861Z,1030.8
2023-02-11T01:20:10.838Z,1030.8
2023-02-11T01:21:10.850Z,1030.8
2023-02-11T01:22:10.839Z,1030.8
2023-02-11T01:23:10.848Z,1030.8
2023-02-11T01:24:10.871Z,1030.8
2023-02-11T01:25:10.844Z,1030.8
2023-02-11T01:26:10.845Z,1030.9
2023-02-11T01:27:10.828Z,1030.9
2023-02-11T01:28:10.901Z,1031
2023-02-11T01:29:10.855Z,1031.1
2023-02-11T01:31:10.941Z,1031.1
2023-02-11T01:32:10.946Z,1031.1
2023-02-11T01:33:10.930Z,1031.1
2023-02-11T01:34:10.858Z,1031.2
2023-02-11T01:35:10.848Z,1031.1
2023-02-11T01:36:10.844Z,1031.1
2023-02-11T01:38:10.836Z,1031
2023-02-11T01:39:10.852Z,1031
2023-02-11T01:40:10.840Z,1030.9
2023-02-11T01:41:10.848Z,1030.9
2023-02-11T01:42:10.850Z,1030.8
2023-02-11T01:43:10.885Z,1030.8
2023-02-11T01:44:10.857Z,1030.8
2023-02-11T01:45:10.900Z,1030.8
2023-02-11T01:46:10.915Z,1030.8
2023-02-11T01:47:10.878Z,1030.8
2023-02-11T01:48:10.872Z,1030.8
2023-02-11T01:49:10.921Z,1030.7
2023-02-11T01:50:10.901Z,1030.7
2023-02-11T01:51:10.852Z,1030.7
2023-02-11T01:52:10.846Z,1030.7
2023-02-11T01:53:10.860Z,1030.6
2023-02-11T01:54:10.871Z,1030.6
2023-02-11T01:55:10.888Z,1030.6
2023-02-11T01:56:10.862Z,1030.6
2023-02-11T01:57:10.848Z,1030.7
2023-02-11T01:59:10.859Z,1030.6
2023-02-11T02:00:10.846Z,1030.7
2023-02-11T02:01:10.854Z,1030.7
2023-02-11T02:02:10.908Z,1030.7
2023-02-11T02:03:10.844Z,1030.7
2023-02-11T02:04:10.857Z,1030.7
2023-02-11T02:05:10.849Z,1030.7
2023-02-11T02:06:10.877Z,1030.8
2023-02-11T02:08:10.864Z,1030.8
2023-02-11T02:09:10.855Z,1030.8
2023-02-11T02:10:10.863Z,1030.7
2023-02-11T02:11:10.846Z,1030.7
2023-02-11T02:12:10.852Z,1030.7
2023-02-11T02:13:10.853Z,1030.7
2023-02-11T02:14:10.851Z,1030.7
2023-02-11T02:15:10.842Z,1030.7
2023-02-11T02:16:10.919Z,1030.6
2023-02-11T02:17:10.845Z,1030.5
2023-02-11T02:18:10.851Z,1030.5
2023-02-11T02:19:10.891Z,1030.5
2023-02-11T02:22:10.863Z,1030.3
2023-02-11T02:23:10.862Z,1030.3
2023-02-11T02:24:13.807Z,1030.3
2023-02-11T02:25:10.873Z,1030.3
2023-02-11T02:26:10.895Z,1030.3
2023-02-11T02:27:10.850Z,1030.4
2023-02-11T02:28:10.887Z,1030.4
2023-02-11T02:29:10.861Z,1030.4
2023-02-11T02:30:10.858Z,1030.4
2023-02-11T02:31:11.036Z,1030.4
2023-02-11T02:32:10.852Z,1030.5
2023-02-11T02:33:21.826Z,1030.4
2023-02-11T02:34:10.864Z,1030.5
2023-02-11T02:35:10.866Z,1030.4
2023-02-11T02:36:10.883Z,1030.4
2023-02-11T02:37:10.859Z,1030.4
2023-02-11T02:38:10.858Z,1030.4
2023-02-11T02:39:10.863Z,1030.4
2023-02-11T02:40:10.875Z,1030.4
2023-02-11T02:41:10.888Z,1030.4
2023-02-11T02:42:10.855Z,1030.4
2023-02-11T02:43:10.886Z,1030.4
2023-02-11T02:44:10.865Z,1030.4
2023-02-11T02:45:10.866Z,1030.4
2023-02-11T02:46:10.859Z,1030.5
2023-02-11T02:47:10.856Z,1030.4
2023-02-11T02:48:10.861Z,1030.4
2023-02-11T02:49:10.852Z,1030.5
2023-02-11T02:50:10.859Z,1030.5
2023-02-11T02:51:11.644Z,1030.5
2023-02-11T02:52:10.875Z,1030.5
2023-02-11T02:53:10.867Z,1030.5
2023-02-11T02:54:10.873Z,1030.4
2023-02-11T02:55:10.868Z,1030.4
2023-02-11T02:56:10.866Z,1030.4
2023-02-11T02:57:10.878Z,1030.4
2023-02-11T02:58:10.887Z,1030.4
2023-02-11T02:59:10.874Z,1030.3
2023-02-11T03:00:10.877Z,1030.3
2023-02-11T03:01:10.923Z,1030.3
2023-02-11T03:02:10.866Z,1030.2
2023-02-11T03:03:10.877Z,1030.1
2023-02-11T03:04:10.875Z,1030.1
2023-02-11T03:05:10.892Z,1030.1
2023-02-11T03:06:10.923Z,1030
2023-02-11T03:07:10.863Z,1030
2023-02-11T03:08:10.865Z,1030
2023-02-11T03:09:11.644Z,1030.1
2023-02-11T03:10:10.885Z,1030.1
2023-02-11T03:11:10.888Z,1030.1
2023-02-11T03:12:10.895Z,1030.1
2023-02-11T03:13:10.893Z,1030.2
2023-02-11T03:14:10.914Z,1030.2
2023-02-11T03:15:10.895Z,1030.2
2023-02-11T03:16:10.897Z,1030.2
2023-02-11T03:17:10.869Z,1030.3
2023-02-11T03:18:10.882Z,1030.3
2023-02-11T03:19:10.877Z,1030.4
2023-02-11T03:20:10.879Z,1030.3
2023-02-11T03:21:10.877Z,1030.4
2023-02-11T03:22:10.861Z,1030.3
2023-02-11T03:23:10.909Z,1030.3
2023-02-11T03:24:10.876Z,1030.3
2023-02-11T03:25:10.875Z,1030.3
2023-02-11T03:26:10.882Z,1030.3
2023-02-11T03:27:10.869Z,1030.4
2023-02-11T03:28:10.936Z,1030.4
2023-02-11T03:29:10.881Z,1030.4
2023-02-11T03:30:10.909Z,1030.4
2023-02-11T03:31:10.983Z,1030.4
2023-02-11T03:34:10.871Z,1030.5
2023-02-11T03:35:10.893Z,1030.5
2023-02-11T03:36:10.879Z,1030.4
2023-02-11T03:37:10.874Z,1030.4
2023-02-11T03:38:10.888Z,1030.4
2023-02-11T03:39:10.897Z,1030.4
2023-02-11T03:40:10.884Z,1030.3
2023-02-11T03:41:10.885Z,1030.3
2023-02-11T03:42:10.870Z,1030.3
2023-02-11T03:43:10.886Z,1030.3
2023-02-11T03:44:10.888Z,1030.2
2023-02-11T03:45:10.881Z,1030.2
2023-02-11T03:46:10.910Z,1030.3
2023-02-11T03:47:10.873Z,1030.2
2023-02-11T03:48:10.888Z,1030.3
2023-02-11T03:49:10.885Z,1030.3
2023-02-11T03:50:10.884Z,1030.3
2023-02-11T03:51:10.874Z,1030.3
2023-02-11T03:52:10.869Z,1030.3
2023-02-11T03:53:10.886Z,1030.3
2023-02-11T03:55:10.918Z,1030.3
2023-02-11T03:57:10.870Z,1030.3
2023-02-11T03:58:10.880Z,1030.2
2023-02-11T03:59:10.900Z,1030.2
2023-02-11T04:00:10.909Z,1030.2
2023-02-11T04:01:10.908Z,1030.2
2023-02-11T04:02:10.872Z,1030.2
2023-02-11T04:03:11.019Z,1030.2
2023-02-11T04:04:10.875Z,1030.2
2023-02-11T04:05:10.875Z,1030.2
2023-02-11T04:06:10.877Z,1030.2
2023-02-11T04:07:10.868Z,1030.2
2023-02-11T04:08:10.885Z,1030.2
2023-02-11T04:09:10.935Z,1030.2
2023-02-11T04:10:10.902Z,1030.2
2023-02-11T04:11:10.894Z,1030.1
2023-02-11T04:12:10.930Z,1030.1
2023-02-11T04:13:10.901Z,1030.1
2023-02-11T04:14:10.881Z,1030.1
2023-02-11T04:16:10.993Z,1030.2
2023-02-11T04:17:10.922Z,1030.3
2023-02-11T04:19:10.872Z,1030.3
2023-02-11T04:20:10.896Z,1030.3
2023-02-11T04:21:10.875Z,1030.2
2023-02-11T04:22:10.891Z,1030.3
2023-02-11T04:23:10.899Z,1030.3
2023-02-11T04:24:10.905Z,1030.3
2023-02-11T04:25:10.880Z,1030.4
2023-02-11T04:26:10.876Z,1030.4
2023-02-11T04:27:10.881Z,1030.3
2023-02-11T04:28:10.929Z,1030.4
2023-02-11T04:29:10.896Z,1030.4
2023-02-11T04:30:10.900Z,1030.4
2023-02-11T04:31:10.908Z,1030.4
2023-02-11T04:32:10.966Z,1030.4
2023-02-11T04:33:10.901Z,1030.4
2023-02-11T04:34:10.885Z,1030.5
2023-02-11T04:35:10.902Z,1030.5
2023-02-11T04:37:10.883Z,1030.6
2023-02-11T04:38:10.892Z,1030.5
2023-02-11T04:39:10.897Z,1030.5
2023-02-11T04:40:10.883Z,1030.5
2023-02-11T04:41:10.890Z,1030.5
2023-02-11T04:42:10.881Z,1030.5
2023-02-11T04:43:10.880Z,1030.5
2023-02-11T04:44:10.911Z,1030.5
2023-02-11T04:45:10.914Z,1030.5
2023-02-11T04:46:11.043Z,1030.6
2023-02-11T04:47:10.889Z,1030.5
2023-02-11T04:48:10.891Z,1030.5
2023-02-11T04:49:10.901Z,1030.5
2023-02-11T04:50:10.897Z,1030.5
2023-02-11T04:51:10.902Z,1030.4
2023-02-11T04:52:10.917Z,1030.4
2023-02-11T04:53:10.892Z,1030.4
2023-02-11T04:54:10.890Z,1030.3
2023-02-11T04:55:10.885Z,1030.4
2023-02-11T04:56:10.906Z,1030.3
2023-02-11T04:58:10.884Z,1030.3
2023-02-11T04:59:10.889Z,1030.3
2023-02-11T05:00:10.927Z,1030.3
2023-02-11T05:01:11.055Z,1030.2
2023-02-11T05:02:10.911Z,1030.2
2023-02-11T05:03:10.916Z,1030.2
2023-02-11T05:04:10.933Z,1030.3
2023-02-11T05:05:10.892Z,1030.3
2023-02-11T05:06:10.894Z,1030.3
2023-02-11T05:07:10.923Z,1030.4
2023-02-11T05:08:10.903Z,1030.4
2023-02-11T05:09:10.902Z,1030.4
2023-02-11T05:10:10.888Z,1030.4
2023-02-11T05:11:10.888Z,1030.4
2023-02-11T05:13:10.902Z,1030.4
2023-02-11T05:14:10.904Z,1030.4
2023-02-11T05:15:10.895Z,1030.4
2023-02-11T05:16:10.893Z,1030.3
2023-02-11T05:17:10.892Z,1030.3
2023-02-11T05:20:10.931Z,1030.3
2023-02-11T05:21:10.890Z,1030.3
2023-02-11T05:22:10.906Z,1030.3
2023-02-11T05:23:10.895Z,1030.3
2023-02-11T05:24:10.900Z,1030.3
2023-02-11T05:25:10.963Z,1030.3
2023-02-11T05:26:10.921Z,1030.3
2023-02-11T05:27:10.919Z,1030.3
2023-02-11T05:28:10.953Z,1030.3
2023-02-11T05:29:10.913Z,1030.3
2023-02-11T05:30:10.921Z,1030.3
2023-02-11T05:31:11.048Z,1030.3
2023-02-11T05:32:10.939Z,1030.3
2023-02-11T05:33:10.912Z,1030.2
2023-02-11T05:34:10.900Z,1030.2
2023-02-11T05:35:10.916Z,1030.2
2023-02-11T05:37:10.941Z,1030.2
2023-02-11T05:38:10.895Z,1030.2
2023-02-11T05:39:10.897Z,1030.2
2023-02-11T05:40:10.907Z,1030.2
2023-02-11T05:41:10.914Z,1030.2
2023-02-11T05:42:10.922Z,1030.2
2023-02-11T05:43:10.908Z,1030.3
2023-02-11T05:44:10.916Z,1030.3
2023-02-11T05:45:10.903Z,1030.2
2023-02-11T05:46:10.940Z,1030.2
2023-02-11T05:47:10.925Z,1030.3
2023-02-11T05:48:10.891Z,1030.3
2023-02-11T05:49:10.892Z,1030.3
2023-02-11T05:50:10.891Z,1030.2
2023-02-11T05:51:10.901Z,1030.2
2023-02-11T05:52:10.894Z,1030.2
2023-02-11T05:53:10.897Z,1030.1
2023-02-11T05:54:10.902Z,1030.1
2023-02-11T05:55:10.900Z,1030.1
2023-02-11T05:56:10.908Z,1030.1
2023-02-11T05:57:10.898Z,1030
2023-02-11T05:58:10.933Z,1030
2023-02-11T05:59:10.913Z,1030
2023-02-11T06:00:10.926Z,1030.1
2023-02-11T06:01:10.903Z,1030.1
2023-02-11T06:02:10.925Z,1030.1
2023-02-11T06:03:10.930Z,1030.1
2023-02-11T06:04:10.900Z,1030.1
2023-02-11T06:05:10.905Z,1030.2
2023-02-11T06:06:10.899Z,1030.2
2023-02-11T06:07:10.935Z,1030.2
2023-02-11T06:08:10.903Z,1030.2
2023-02-11T06:09:10.955Z,1030.3
2023-02-11T06:10:10.914Z,1030.3
2023-02-11T06:11:10.900Z,1030.3
2023-02-11T06:12:10.904Z,1030.3
2023-02-11T06:13:10.900Z,1030.3
2023-02-11T06:14:10.905Z,1030.2
2023-02-11T06:15:10.904Z,1030.2
2023-02-11T06:16:10.943Z,1030.3
2023-02-11T06:17:10.913Z,1030.2
2023-02-11T06:19:10.917Z,1030.2
2023-02-11T06:20:10.937Z,1030.2
2023-02-11T06:21:10.941Z,1030.2
2023-02-11T06:22:10.920Z,1030.2
2023-02-11T06:24:10.926Z,1030.2
2023-02-11T06:25:10.905Z,1030.1
2023-02-11T06:26:10.962Z,1030.2
2023-02-11T06:27:10.926Z,1030.2
2023-02-11T06:28:11.021Z,1030.2
2023-02-11T06:29:10.920Z,1030.2
2023-02-11T06:31:10.975Z,1030.2
2023-02-11T06:32:28.079Z,1030.2
2023-02-11T06:33:10.918Z,1030.2
2023-02-11T06:34:10.938Z,1030.2
2023-02-11T06:35:12.133Z,1030.2
2023-02-11T06:36:10.913Z,1030.3
2023-02-11T06:37:10.914Z,1030.2
2023-02-11T06:38:10.911Z,1030.2
2023-02-11T06:39:10.912Z,1030.3
2023-02-11T06:40:10.967Z,1030.2
2023-02-11T06:41:10.913Z,1030.2
2023-02-11T06:42:10.904Z,1030.2
2023-02-11T06:43:10.981Z,1030.2
2023-02-11T06:44:10.918Z,1030.3
2023-02-11T06:45:11.154Z,1030.3
2023-02-11T06:46:10.972Z,1030.2
2023-02-11T06:47:10.917Z,1030.2
2023-02-11T06:48:10.975Z,1030.3
2023-02-11T06:49:10.912Z,1030.3
2023-02-11T06:50:10.911Z,1030.3
2023-02-11T06:52:10.905Z,1030.3
2023-02-11T06:53:10.919Z,1030.3
2023-02-11T06:54:10.917Z,1030.3
2023-02-11T06:55:10.912Z,1030.3
2023-02-11T06:56:10.912Z,1030.3
2023-02-11T06:57:10.915Z,1030.3
2023-02-11T06:58:10.922Z,1030.2
2023-02-11T06:59:10.928Z,1030.3
2023-02-11T07:00:10.936Z,1030.3
2023-02-11T07:01:10.924Z,1030.3
2023-02-11T07:02:11.030Z,1030.3
2023-02-11T07:03:10.993Z,1030.4
2023-02-11T07:04:10.925Z,1030.3
2023-02-11T07:05:10.984Z,1030.3
2023-02-11T07:06:10.914Z,1030.3
2023-02-11T07:07:10.913Z,1030.3
2023-02-11T07:08:10.937Z,1030.3
2023-02-11T07:10:10.965Z,1030.4
2023-02-11T07:11:10.916Z,1030.4
2023-02-11T07:12:10.941Z,1030.4
2023-02-11T07:13:10.921Z,1030.4
2023-02-11T07:15:10.914Z,1030.5
2023-02-11T07:16:10.929Z,1030.5
2023-02-11T07:17:10.922Z,1030.5
2023-02-11T07:18:13.061Z,1030.5
2023-02-11T07:20:10.925Z,1030.4
2023-02-11T07:21:10.925Z,1030.4
2023-02-11T07:22:10.949Z,1030.5
2023-02-11T07:23:10.946Z,1030.4
2023-02-11T07:25:10.963Z,1030.5
2023-02-11T07:26:10.945Z,1030.5
2023-02-11T07:27:10.965Z,1030.5
2023-02-11T07:28:10.960Z,1030.5
2023-02-11T07:29:10.941Z,1030.5
2023-02-11T07:30:10.930Z,1030.5
2023-02-11T07:31:11.054Z,1030.5
2023-02-11T07:32:10.987Z,1030.5
2023-02-11T07:34:10.922Z,1030.5
2023-02-11T07:35:10.926Z,1030.5
2023-02-11T07:36:10.955Z,1030.5
2023-02-11T07:37:10.943Z,1030.5
2023-02-11T07:38:10.951Z,1030.5
2023-02-11T07:39:10.958Z,1030.6
2023-02-11T07:40:10.929Z,1030.6
2023-02-11T07:41:10.927Z,1030.6
2023-02-11T07:42:10.966Z,1030.6
2023-02-11T07:43:10.934Z,1030.5
2023-02-11T07:44:10.960Z,1030.6
2023-02-11T07:45:10.946Z,1030.6
2023-02-11T07:46:10.929Z,1030.6
2023-02-11T07:47:10.931Z,1030.6
2023-02-11T07:48:10.941Z,1030.6
2023-02-11T07:49:10.932Z,1030.6
2023-02-11T07:50:10.915Z,1030.6
2023-02-11T07:51:10.924Z,1030.6
2023-02-11T07:52:10.941Z,1030.5
2023-02-11T07:53:10.933Z,1030.5
2023-02-11T07:55:10.960Z,1030.5
2023-02-11T07:56:10.989Z,1030.5
2023-02-11T07:57:10.965Z,1030.6
2023-02-11T07:58:10.943Z,1030.6
2023-02-11T07:59:10.970Z,1030.5
2023-02-11T08:00:10.954Z,1030.6
2023-02-11T08:01:10.955Z,1030.5
2023-02-11T08:02:10.971Z,1030.5
2023-02-11T08:03:10.949Z,1030.5
2023-02-11T08:04:10.987Z,1030.5
2023-02-11T08:05:10.953Z,1030.6
2023-02-11T08:06:10.939Z,1030.5
2023-02-11T08:08:10.970Z,1030.5
2023-02-11T08:09:10.944Z,1030.6
2023-02-11T08:10:10.943Z,1030.6
2023-02-11T08:11:10.962Z,1030.7
2023-02-11T08:12:10.956Z,1030.7
2023-02-11T08:13:10.965Z,1030.7
2023-02-11T08:14:10.953Z,1030.7
2023-02-11T08:16:10.989Z,1030.7
2023-02-11T08:17:10.951Z,1030.7
2023-02-11T08:18:10.950Z,1030.7
2023-02-11T08:19:10.957Z,1030.7
2023-02-11T08:20:10.944Z,1030.7
2023-02-11T08:21:10.941Z,1030.8
2023-02-11T08:22:10.936Z,1030.7
2023-02-11T08:23:10.955Z,1030.7
2023-02-11T08:24:10.943Z,1030.8
2023-02-11T08:25:10.947Z,1030.8
2023-02-11T08:26:10.993Z,1030.8
2023-02-11T08:27:10.943Z,1030.8
2023-02-11T08:28:10.952Z,1030.8
2023-02-11T08:29:10.945Z,1030.8
2023-02-11T08:30:10.952Z,1030.8
2023-02-11T08:31:11.239Z,1030.8
2023-02-11T08:32:10.953Z,1030.8
2023-02-11T08:33:10.937Z,1030.9
2023-02-11T08:34:10.953Z,1030.8
2023-02-11T08:35:10.937Z,1030.9
2023-02-11T08:36:10.952Z,1030.9
2023-02-11T08:37:10.947Z,1030.9
2023-02-11T08:38:10.949Z,1030.9
2023-02-11T08:39:19.693Z,1030.9
2023-02-11T08:40:10.970Z,1030.9
2023-02-11T08:41:11.012Z,1030.9
2023-02-11T08:42:10.956Z,1030.9
2023-02-11T08:43:10.948Z,1030.9
2023-02-11T08:45:10.941Z,1030.8
2023-02-11T08:46:10.992Z,1030.9
2023-02-11T08:48:10.960Z,1030.9
2023-02-11T08:49:10.941Z,1030.9
2023-02-11T08:50:10.944Z,1030.9
2023-02-11T08:51:10.947Z,1030.9
2023-02-11T08:52:10.966Z,1030.9
2023-02-11T08:53:10.989Z,1030.9
2023-02-11T08:54:11.005Z,1030.9
2023-02-11T08:55:10.960Z,1030.9
2023-02-11T08:56:13.336Z,1030.9
2023-02-11T08:57:10.973Z,1030.9
2023-02-11T08:58:10.967Z,1030.9
2023-02-11T08:59:10.958Z,1031
2023-02-11T09:00:10.940Z,1031
2023-02-11T09:02:10.998Z,1031
2023-02-11T09:03:10.966Z,1031
2023-02-11T09:04:10.964Z,1031
2023-02-11T09:05:10.958Z,1031
2023-02-11T09:06:10.969Z,1031.1
2023-02-11T09:09:10.968Z,1031
2023-02-11T09:11:10.979Z,1031.1
2023-02-11T09:12:10.963Z,1031.1
2023-02-11T09:13:10.970Z,1031.1
2023-02-11T09:14:10.971Z,1031.1
2023-02-11T09:15:11.061Z,1031.1
2023-02-11T09:16:10.952Z,1031.1
2023-02-11T09:17:10.954Z,1031.1
2023-02-11T09:19:10.978Z,1031.1
2023-02-11T09:20:11.042Z,1031.2
2023-02-11T09:21:10.999Z,1031.2
2023-02-11T09:22:10.975Z,1031.2
2023-02-11T09:23:10.975Z,1031.2
2023-02-11T09:24:10.984Z,1031.2
2023-02-11T09:25:11.003Z,1031.2
2023-02-11T09:26:10.988Z,1031.2
2023-02-11T09:28:11.005Z,1031.3
2023-02-11T09:29:10.970Z,1031.2
2023-02-11T09:30:10.968Z,1031.3
2023-02-11T09:31:11.139Z,1031.2
2023-02-11T09:32:11.125Z,1031.3
2023-02-11T09:33:10.955Z,1031.2
2023-02-11T09:34:10.972Z,1031.3
2023-02-11T09:35:10.972Z,1031.3
2023-02-11T09:36:10.981Z,1031.3
2023-02-11T09:37:11.039Z,1031.4
2023-02-11T09:39:10.999Z,1031.4
2023-02-11T09:40:10.980Z,1031.4
2023-02-11T09:41:10.962Z,1031.5
2023-02-11T09:42:10.952Z,1031.4
2023-02-11T09:43:10.963Z,1031.4
2023-02-11T09:44:10.981Z,1031.4
2023-02-11T09:45:10.994Z,1031.4
2023-02-11T09:46:11.031Z,1031.4
2023-02-11T09:47:10.982Z,1031.4
2023-02-11T09:48:10.972Z,1031.4
2023-02-11T09:49:11.008Z,1031.4
2023-02-11T09:51:10.974Z,1031.5
2023-02-11T09:52:10.984Z,1031.5
2023-02-11T09:53:10.987Z,1031.5
2023-02-11T09:55:10.979Z,1031.5
2023-02-11T09:56:10.998Z,1031.5
2023-02-11T09:57:26.461Z,1031.5
2023-02-11T09:58:10.964Z,1031.5
2023-02-11T09:59:10.980Z,1031.6
2023-02-11T10:00:10.996Z,1031.6
2023-02-11T10:01:11.049Z,1031.6
2023-02-11T10:02:10.991Z,1031.6
2023-02-11T10:03:10.985Z,1031.6
2023-02-11T10:04:11.008Z,1031.6
2023-02-11T10:05:10.979Z,1031.6
2023-02-11T10:06:10.997Z,1031.5
2023-02-11T10:07:10.983Z,1031.5
2023-02-11T10:08:11.011Z,1031.5
2023-02-11T10:09:10.985Z,1031.6
2023-02-11T10:10:10.965Z,1031.5
2023-02-11T10:12:10.979Z,1031.5
2023-02-11T10:13:10.974Z,1031.5
2023-02-11T10:14:10.986Z,1031.5
2023-02-11T10:15:10.990Z,1031.5
2023-02-11T10:16:11.149Z,1031.6
2023-02-11T10:17:10.981Z,1031.5
2023-02-11T10:18:10.981Z,1031.5
2023-02-11T10:19:10.997Z,1031.5
2023-02-11T10:20:10.981Z,1031.6
2023-02-11T10:21:10.988Z,1031.5
2023-02-11T10:22:10.996Z,1031.5
2023-02-11T10:23:10.996Z,1031.5
2023-02-11T10:24:10.992Z,1031.5
2023-02-11T10:25:10.988Z,1031.6
2023-02-11T10:26:10.975Z,1031.6
2023-02-11T10:27:11.010Z,1031.6
2023-02-11T10:28:11.043Z,1031.6
2023-02-11T10:30:10.991Z,1031.6
2023-02-11T10:31:11.159Z,1031.6
2023-02-11T10:32:11.060Z,1031.6
2023-02-11T10:33:10.969Z,1031.7
2023-02-11T10:34:10.979Z,1031.7
2023-02-11T10:35:10.982Z,1031.7
2023-02-11T10:36:10.982Z,1031.7
2023-02-11T10:37:10.981Z,1031.7
2023-02-11T10:38:11.033Z,1031.7
2023-02-11T10:39:11.019Z,1031.8
2023-02-11T10:40:11.007Z,1031.7
2023-02-11T10:41:10.996Z,1031.7
2023-02-11T10:43:11.006Z,1031.7
2023-02-11T10:44:11.001Z,1031.7
2023-02-11T10:45:10.983Z,1031.6
2023-02-11T10:46:11.005Z,1031.6
2023-02-11T10:47:10.981Z,1031.7
2023-02-11T10:48:11.000Z,1031.7
2023-02-11T10:49:10.998Z,1031.7
2023-02-11T10:50:10.998Z,1031.7
2023-02-11T10:51:12.782Z,1031.8
2023-02-11T10:52:11.007Z,1031.8
2023-02-11T10:53:11.021Z,1031.8
2023-02-11T10:54:13.611Z,1031.8
2023-02-11T10:55:10.984Z,1031.8
2023-02-11T10:56:10.999Z,1031.9
2023-02-11T10:57:11.003Z,1031.9
2023-02-11T10:58:11.053Z,1031.9
2023-02-11T10:59:11.017Z,1031.9
2023-02-11T11:00:10.998Z,1031.9
2023-02-11T11:01:24.035Z,1032
2023-02-11T11:02:11.098Z,1031.9
2023-02-11T11:03:11.011Z,1031.9
2023-02-11T11:04:11.019Z,1031.9
2023-02-11T11:05:10.988Z,1031.9
2023-02-11T11:06:10.991Z,1032
2023-02-11T11:07:11.028Z,1032
2023-02-11T11:08:11.000Z,1032
2023-02-11T11:09:10.996Z,1032
2023-02-11T11:10:11.055Z,1032
2023-02-11T11:11:11.008Z,1032
2023-02-11T11:12:11.014Z,1032
2023-02-11T11:13:11.010Z,1032
2023-02-11T11:14:10.993Z,1032
2023-02-11T11:15:10.997Z,1032
2023-02-11T11:16:11.050Z,1032
2023-02-11T11:17:10.999Z,1032
2023-02-11T11:18:20.894Z,1032
2023-02-11T11:19:10.997Z,1032
2023-02-11T11:20:10.985Z,1032
2023-02-11T11:21:11.004Z,1032
2023-02-11T11:22:11.001Z,1032
2023-02-11T11:25:10.986Z,1032
2023-02-11T11:26:10.999Z,1032
2023-02-11T11:27:11.052Z,1032
2023-02-11T11:28:11.104Z,1032
2023-02-11T11:29:11.035Z,1032
2023-02-11T11:30:11.005Z,1032
2023-02-11T11:31:11.089Z,1032
2023-02-11T11:32:11.098Z,1032.1
2023-02-11T11:33:11.008Z,1032
2023-02-11T11:34:11.021Z,1032
2023-02-11T11:35:10.981Z,1032.1
2023-02-11T11:36:11.005Z,1032.1
2023-02-11T11:37:11.015Z,1032.1
2023-02-11T11:38:11.010Z,1032.1
2023-02-11T11:39:11.003Z,1032.1
2023-02-11T11:40:11.022Z,1032.1
2023-02-11T11:41:11.006Z,1032
2023-02-11T11:42:10.996Z,1032
2023-02-11T11:43:11.005Z,1032
2023-02-11T11:45:11.007Z,1032
2023-02-11T11:46:11.038Z,1032
2023-02-11T11:47:11.020Z,1031.9
2023-02-11T11:48:11.008Z,1031.9
2023-02-11T11:49:11.004Z,1032
2023-02-11T11:50:10.993Z,1031.9
2023-02-11T11:52:11.016Z,1031.9
2023-02-11T11:53:11.005Z,1031.8
2023-02-11T11:54:11.028Z,1031.8
2023-02-11T11:55:11.014Z,1031.9
2023-02-11T11:56:10.997Z,1031.8
2023-02-11T11:57:11.007Z,1031.9
2023-02-11T11:58:11.022Z,1031.9
2023-02-11T11:59:11.039Z,1031.8
2023-02-11T12:00:11.038Z,1031.8
2023-02-11T12:01:11.009Z,1031.8
2023-02-11T12:02:11.140Z,1031.8
2023-02-11T12:03:11.114Z,1031.8
2023-02-11T12:04:11.010Z,1031.8
2023-02-11T12:05:11.022Z,1031.8
2023-02-11T12:06:11.056Z,1031.8
2023-02-11T12:07:11.027Z,1031.8
2023-02-11T12:08:11.011Z,1031.8
2023-02-11T12:09:11.001Z,1031.8
2023-02-11T12:10:10.996Z,1031.9
2023-02-11T12:11:11.002Z,1031.9
2023-02-11T12:12:11.002Z,1031.9
2023-02-11T12:13:11.051Z,1031.9
2023-02-11T12:14:11.003Z,1031.9
2023-02-11T12:15:11.030Z,1031.9
2023-02-11T12:16:11.089Z,1031.9
2023-02-11T12:17:11.040Z,1032
2023-02-11T12:18:11.034Z,1032
2023-02-11T12:19:11.001Z,1032
2023-02-11T12:20:11.001Z,1032
2023-02-11T12:21:11.005Z,1031.9
2023-02-11T12:22:11.048Z,1031.9
2023-02-11T12:23:11.027Z,1031.9
2023-02-11T12:24:11.024Z,1031.8
2023-02-11T12:25:11.022Z,1031.8
2023-02-11T12:26:11.017Z,1031.8
2023-02-11T12:27:11.025Z,1031.8
2023-02-11T12:29:11.006Z,1031.9
2023-02-11T12:30:11.003Z,1031.9
2023-02-11T12:31:13.124Z,1031.9
2023-02-11T12:32:11.152Z,1031.9
2023-02-11T12:33:11.039Z,1031.9
2023-02-11T12:34:11.005Z,1031.9
2023-02-11T12:35:11.009Z,1031.8
2023-02-11T12:36:11.011Z,1031.8
2023-02-11T12:37:11.023Z,1031.8
2023-02-11T12:38:11.045Z,1031.8
2023-02-11T12:39:11.022Z,1031.8
2023-02-11T12:40:11.098Z,1031.8
2023-02-11T12:41:11.012Z,1031.8
2023-02-11T12:42:11.000Z,1031.8
2023-02-11T12:43:11.028Z,1031.8
2023-02-11T12:44:11.029Z,1031.8
2023-02-11T12:46:11.122Z,1031.8
2023-02-11T12:48:11.006Z,1031.8
2023-02-11T12:49:11.009Z,1031.7
2023-02-11T12:51:11.020Z,1031.6
2023-02-11T12:52:11.038Z,1031.5
2023-02-11T12:53:11.035Z,1031.5
2023-02-11T12:54:11.070Z,1031.6
2023-02-11T12:55:11.026Z,1031.5
2023-02-11T12:56:11.030Z,1031.6
2023-02-11T12:57:11.039Z,1031.6
2023-02-11T12:58:11.018Z,1031.6
2023-02-11T12:59:13.923Z,1031.6
2023-02-11T13:00:11.015Z,1031.6
2023-02-11T13:01:11.041Z,1031.5
2023-02-11T13:02:11.143Z,1031.5
2023-02-11T13:03:11.020Z,1031.5
2023-02-11T13:04:11.033Z,1031.5
2023-02-11T13:05:14.006Z,1031.5
2023-02-11T13:06:11.031Z,1031.5
2023-02-11T13:07:11.084Z,1031.5
2023-02-11T13:09:11.080Z,1031.5
2023-02-11T13:10:11.068Z,1031.5
2023-02-11T13:11:13.851Z,1031.5
2023-02-11T13:12:11.021Z,1031.5
2023-02-11T13:13:11.034Z,1031.5
2023-02-11T13:14:11.050Z,1031.5
2023-02-11T13:15:11.056Z,1031.5
2023-02-11T13:16:11.094Z,1031.5
2023-02-11T13:17:11.036Z,1031.5
2023-02-11T13:18:11.027Z,1031.6
2023-02-11T13:19:11.074Z,1031.5
2023-02-11T13:20:11.104Z,1031.6
2023-02-11T13:21:11.026Z,1031.6
2023-02-11T13:22:11.027Z,1031.6
2023-02-11T13:23:11.038Z,1031.6
2023-02-11T13:24:11.046Z,1031.6
2023-02-11T13:25:11.056Z,1031.7
2023-02-11T13:26:11.043Z,1031.6
2023-02-11T13:28:11.091Z,1031.6